sensor_id;sensor_type;location;lat;lon;timestamp;P1;durP1;ratioP1;P2;durP2;ratioP2
58637;SDS011;54976;51.510;7.522;2023-12-20T00:00:08;38.10;;;17.98;;
58637;SDS011;54976;51.510;7.522;2023-12-20T00:03:09;45.03;;;19.42;;
58637;SDS011;54976;51.510;7.522;2023-12-20T00:06:10;34.15;;;16.92;;
58637;SDS011;54976;51.510;7.522;2023-12-20T00:09:10;39.33;;;17.30;;
58637;SDS011;54976;51.510;7.522;2023-12-20T00:12:11;37.35;;;16.90;;
58637;SDS011;54976;51.510;7.522;2023-12-20T00:15:12;38.58;;;16.23;;
58637;SDS011;54976;51.510;7.522;2023-12-20T00:18:12;43.13;;;18.02;;
58637;SDS011;54976;51.510;7.522;2023-12-20T00:21:13;42.78;;;17.88;;
58637;SDS011;54976;51.510;7.522;2023-12-20T00:24:14;41.10;;;17.67;;
58637;SDS011;54976;51.510;7.522;2023-12-20T00:27:14;44.92;;;18.13;;
58637;SDS011;54976;51.510;7.522;2023-12-20T00:30:15;42.65;;;18.52;;
58637;SDS011;54976;51.510;7.522;2023-12-20T00:33:16;40.83;;;17.73;;
58637;SDS011;54976;51.510;7.522;2023-12-20T00:36:17;40.03;;;17.88;;
58637;SDS011;54976;51.510;7.522;2023-12-20T00:39:17;45.22;;;19.00;;
58637;SDS011;54976;51.510;7.522;2023-12-20T00:42:18;42.08;;;18.63;;
58637;SDS011;54976;51.510;7.522;2023-12-20T00:45:18;49.05;;;18.60;;
58637;SDS011;54976;51.510;7.522;2023-12-20T00:48:19;39.65;;;18.75;;
58637;SDS011;54976;51.510;7.522;2023-12-20T00:51:20;40.25;;;17.67;;
58637;SDS011;54976;51.510;7.522;2023-12-20T00:54:20;37.72;;;17.77;;
58637;SDS011;54976;51.510;7.522;2023-12-20T00:57:21;28.77;;;12.98;;
58637;SDS011;54976;51.510;7.522;2023-12-20T01:00:21;26.15;;;12.45;;
58637;SDS011;54976;51.510;7.522;2023-12-20T01:03:22;29.20;;;12.35;;
58637;SDS011;54976;51.510;7.522;2023-12-20T01:06:23;22.65;;;9.90;;
58637;SDS011;54976;51.510;7.522;2023-12-20T01:09:24;20.65;;;8.82;;
58637;SDS011;54976;51.510;7.522;2023-12-20T01:12:26;26.58;;;8.82;;
58637;SDS011;54976;51.510;7.522;2023-12-20T01:15:27;17.00;;;8.88;;
58637;SDS011;54976;51.510;7.522;2023-12-20T01:18:27;22.23;;;9.13;;
58637;SDS011;54976;51.510;7.522;2023-12-20T01:21:28;18.08;;;7.78;;
58637;SDS011;54976;51.510;7.522;2023-12-20T01:24:28;18.15;;;7.38;;
58637;SDS011;54976;51.510;7.522;2023-12-20T01:27:29;22.77;;;7.30;;
58637;SDS011;54976;51.510;7.522;2023-12-20T01:30:31;15.13;;;6.53;;
58637;SDS011;54976;51.510;7.522;2023-12-20T01:33:31;17.38;;;6.70;;
58637;SDS011;54976;51.510;7.522;2023-12-20T01:36:32;15.55;;;6.72;;
58637;SDS011;54976;51.510;7.522;2023-12-20T01:39:32;18.60;;;7.35;;
58637;SDS011;54976;51.510;7.522;2023-12-20T01:42:33;16.02;;;6.35;;
58637;SDS011;54976;51.510;7.522;2023-12-20T01:45:34;13.45;;;6.15;;
58637;SDS011;54976;51.510;7.522;2023-12-20T01:48:34;14.63;;;6.55;;
58637;SDS011;54976;51.510;7.522;2023-12-20T01:51:35;16.42;;;6.20;;
58637;SDS011;54976;51.510;7.522;2023-12-20T01:54:37;17.92;;;5.55;;
58637;SDS011;54976;51.510;7.522;2023-12-20T01:57:39;17.60;;;6.20;;
58637;SDS011;54976;51.510;7.522;2023-12-20T02:00:41;16.80;;;5.15;;
58637;SDS011;54976;51.510;7.522;2023-12-20T02:03:42;15.02;;;5.22;;
58637;SDS011;54976;51.510;7.522;2023-12-20T02:06:43;18.63;;;5.75;;
58637;SDS011;54976;51.510;7.522;2023-12-20T02:09:46;20.77;;;5.68;;
58637;SDS011;54976;51.510;7.522;2023-12-20T02:12:47;15.07;;;5.38;;
58637;SDS011;54976;51.510;7.522;2023-12-20T02:15:47;12.55;;;5.50;;
58637;SDS011;54976;51.510;7.522;2023-12-20T02:18:48;18.88;;;6.03;;
58637;SDS011;54976;51.510;7.522;2023-12-20T02:21:48;14.93;;;4.57;;
58637;SDS011;54976;51.510;7.522;2023-12-20T02:24:49;15.77;;;4.40;;
58637;SDS011;54976;51.510;7.522;2023-12-20T02:27:50;13.63;;;4.53;;
58637;SDS011;54976;51.510;7.522;2023-12-20T02:30:51;15.43;;;4.07;;
58637;SDS011;54976;51.510;7.522;2023-12-20T02:33:51;19.90;;;5.35;;
58637;SDS011;54976;51.510;7.522;2023-12-20T02:36:52;16.48;;;5.47;;
58637;SDS011;54976;51.510;7.522;2023-12-20T02:39:52;15.93;;;4.95;;
58637;SDS011;54976;51.510;7.522;2023-12-20T02:42:53;21.33;;;5.63;;
58637;SDS011;54976;51.510;7.522;2023-12-20T02:45:53;18.42;;;4.25;;
58637;SDS011;54976;51.510;7.522;2023-12-20T02:48:54;13.88;;;5.50;;
58637;SDS011;54976;51.510;7.522;2023-12-20T02:51:54;15.52;;;5.28;;
58637;SDS011;54976;51.510;7.522;2023-12-20T02:54:55;18.75;;;4.75;;
58637;SDS011;54976;51.510;7.522;2023-12-20T02:57:56;13.95;;;4.60;;
58637;SDS011;54976;51.510;7.522;2023-12-20T03:00:56;16.27;;;4.50;;
58637;SDS011;54976;51.510;7.522;2023-12-20T03:03:57;18.40;;;5.15;;
58637;SDS011;54976;51.510;7.522;2023-12-20T03:06:57;22.67;;;4.50;;
58637;SDS011;54976;51.510;7.522;2023-12-20T03:09:58;19.02;;;5.18;;
58637;SDS011;54976;51.510;7.522;2023-12-20T03:12:58;14.57;;;4.72;;
58637;SDS011;54976;51.510;7.522;2023-12-20T03:15:59;12.25;;;3.60;;
58637;SDS011;54976;51.510;7.522;2023-12-20T03:19:00;15.75;;;4.72;;
58637;SDS011;54976;51.510;7.522;2023-12-20T03:22:00;24.40;;;4.55;;
58637;SDS011;54976;51.510;7.522;2023-12-20T03:25:01;16.55;;;4.50;;
58637;SDS011;54976;51.510;7.522;2023-12-20T03:28:01;19.40;;;4.78;;
58637;SDS011;54976;51.510;7.522;2023-12-20T03:31:02;18.73;;;5.40;;
58637;SDS011;54976;51.510;7.522;2023-12-20T03:34:03;15.65;;;4.97;;
58637;SDS011;54976;51.510;7.522;2023-12-20T03:37:04;17.15;;;4.45;;
58637;SDS011;54976;51.510;7.522;2023-12-20T03:40:04;22.60;;;5.93;;
58637;SDS011;54976;51.510;7.522;2023-12-20T03:43:05;14.82;;;5.47;;
58637;SDS011;54976;51.510;7.522;2023-12-20T03:46:07;20.85;;;6.65;;
58637;SDS011;54976;51.510;7.522;2023-12-20T03:49:08;14.90;;;5.43;;
58637;SDS011;54976;51.510;7.522;2023-12-20T03:52:09;22.02;;;4.53;;
58637;SDS011;54976;51.510;7.522;2023-12-20T03:55:10;18.35;;;6.15;;
58637;SDS011;54976;51.510;7.522;2023-12-20T03:58:10;22.25;;;6.13;;
58637;SDS011;54976;51.510;7.522;2023-12-20T04:01:11;23.40;;;6.10;;
58637;SDS011;54976;51.510;7.522;2023-12-20T04:04:12;25.67;;;6.10;;
58637;SDS011;54976;51.510;7.522;2023-12-20T04:07:13;18.10;;;7.00;;
58637;SDS011;54976;51.510;7.522;2023-12-20T04:10:14;29.45;;;7.03;;
58637;SDS011;54976;51.510;7.522;2023-12-20T04:13:15;21.20;;;7.00;;
58637;SDS011;54976;51.510;7.522;2023-12-20T04:16:15;25.05;;;8.35;;
58637;SDS011;54976;51.510;7.522;2023-12-20T04:19:16;23.85;;;6.82;;
58637;SDS011;54976;51.510;7.522;2023-12-20T04:22:17;22.80;;;7.47;;
58637;SDS011;54976;51.510;7.522;2023-12-20T04:25:18;15.77;;;5.25;;
58637;SDS011;54976;51.510;7.522;2023-12-20T04:28:19;24.95;;;7.05;;
58637;SDS011;54976;51.510;7.522;2023-12-20T04:31:20;33.97;;;7.15;;
58637;SDS011;54976;51.510;7.522;2023-12-20T04:34:20;25.92;;;6.50;;
58637;SDS011;54976;51.510;7.522;2023-12-20T04:37:22;20.88;;;6.25;;
58637;SDS011;54976;51.510;7.522;2023-12-20T04:40:22;23.15;;;5.68;;
58637;SDS011;54976;51.510;7.522;2023-12-20T04:43:23;14.27;;;5.63;;
58637;SDS011;54976;51.510;7.522;2023-12-20T04:46:23;26.50;;;6.72;;
58637;SDS011;54976;51.510;7.522;2023-12-20T04:49:24;24.80;;;7.32;;
58637;SDS011;54976;51.510;7.522;2023-12-20T04:52:25;30.77;;;6.30;;
58637;SDS011;54976;51.510;7.522;2023-12-20T04:55:25;22.80;;;6.55;;
58637;SDS011;54976;51.510;7.522;2023-12-20T04:58:26;25.08;;;7.45;;
58637;SDS011;54976;51.510;7.522;2023-12-20T05:01:27;19.55;;;7.85;;
58637;SDS011;54976;51.510;7.522;2023-12-20T05:04:27;17.90;;;6.20;;
58637;SDS011;54976;51.510;7.522;2023-12-20T05:07:28;19.10;;;6.15;;
58637;SDS011;54976;51.510;7.522;2023-12-20T05:10:29;24.60;;;7.63;;
58637;SDS011;54976;51.510;7.522;2023-12-20T05:13:29;26.25;;;6.63;;
58637;SDS011;54976;51.510;7.522;2023-12-20T05:16:30;24.40;;;6.45;;
58637;SDS011;54976;51.510;7.522;2023-12-20T05:19:30;18.88;;;7.05;;
58637;SDS011;54976;51.510;7.522;2023-12-20T05:22:35;23.80;;;6.93;;
58637;SDS011;54976;51.510;7.522;2023-12-20T05:25:35;27.75;;;7.90;;
58637;SDS011;54976;51.510;7.522;2023-12-20T05:28:36;23.45;;;7.10;;
58637;SDS011;54976;51.510;7.522;2023-12-20T05:31:37;20.75;;;6.95;;
58637;SDS011;54976;51.510;7.522;2023-12-20T05:34:37;24.17;;;6.53;;
58637;SDS011;54976;51.510;7.522;2023-12-20T05:37:38;27.00;;;7.28;;
58637;SDS011;54976;51.510;7.522;2023-12-20T05:40:38;15.38;;;5.38;;
58637;SDS011;54976;51.510;7.522;2023-12-20T05:43:39;20.02;;;6.80;;
58637;SDS011;54976;51.510;7.522;2023-12-20T05:46:39;16.63;;;5.63;;
58637;SDS011;54976;51.510;7.522;2023-12-20T05:49:40;31.40;;;7.32;;
58637;SDS011;54976;51.510;7.522;2023-12-20T05:52:41;21.52;;;5.80;;
58637;SDS011;54976;51.510;7.522;2023-12-20T05:55:41;24.08;;;6.63;;
58637;SDS011;54976;51.510;7.522;2023-12-20T05:58:42;26.10;;;7.72;;
58637;SDS011;54976;51.510;7.522;2023-12-20T06:01:43;30.00;;;8.35;;
58637;SDS011;54976;51.510;7.522;2023-12-20T06:04:44;35.45;;;7.57;;
58637;SDS011;54976;51.510;7.522;2023-12-20T06:07:45;29.80;;;6.18;;
58637;SDS011;54976;51.510;7.522;2023-12-20T06:10:48;17.42;;;6.75;;
58637;SDS011;54976;51.510;7.522;2023-12-20T06:13:49;24.50;;;7.45;;
58637;SDS011;54976;51.510;7.522;2023-12-20T06:16:52;29.52;;;8.02;;
58637;SDS011;54976;51.510;7.522;2023-12-20T06:19:52;24.60;;;7.70;;
58637;SDS011;54976;51.510;7.522;2023-12-20T06:22:53;18.90;;;6.72;;
58637;SDS011;54976;51.510;7.522;2023-12-20T06:25:53;24.65;;;7.45;;
58637;SDS011;54976;51.510;7.522;2023-12-20T06:28:54;25.15;;;8.27;;
58637;SDS011;54976;51.510;7.522;2023-12-20T06:31:55;28.30;;;7.63;;
58637;SDS011;54976;51.510;7.522;2023-12-20T06:34:55;34.88;;;8.55;;
58637;SDS011;54976;51.510;7.522;2023-12-20T06:37:56;21.90;;;8.20;;
58637;SDS011;54976;51.510;7.522;2023-12-20T06:40:57;28.13;;;8.25;;
58637;SDS011;54976;51.510;7.522;2023-12-20T06:43:58;24.05;;;7.47;;
58637;SDS011;54976;51.510;7.522;2023-12-20T06:46:59;27.50;;;8.32;;
58637;SDS011;54976;51.510;7.522;2023-12-20T06:49:59;28.42;;;8.68;;
58637;SDS011;54976;51.510;7.522;2023-12-20T06:53:00;28.25;;;8.05;;
58637;SDS011;54976;51.510;7.522;2023-12-20T06:56:06;25.65;;;8.95;;
58637;SDS011;54976;51.510;7.522;2023-12-20T06:59:07;24.42;;;9.07;;
58637;SDS011;54976;51.510;7.522;2023-12-20T07:02:08;14.30;;;6.40;;
58637;SDS011;54976;51.510;7.522;2023-12-20T07:05:09;22.20;;;8.57;;
58637;SDS011;54976;51.510;7.522;2023-12-20T07:08:09;31.70;;;9.88;;
58637;SDS011;54976;51.510;7.522;2023-12-20T07:11:11;25.50;;;7.25;;
58637;SDS011;54976;51.510;7.522;2023-12-20T07:14:11;23.48;;;7.55;;
58637;SDS011;54976;51.510;7.522;2023-12-20T07:17:12;21.60;;;6.25;;
58637;SDS011;54976;51.510;7.522;2023-12-20T07:20:15;24.38;;;7.43;;
58637;SDS011;54976;51.510;7.522;2023-12-20T07:23:15;30.60;;;7.82;;
58637;SDS011;54976;51.510;7.522;2023-12-20T07:26:16;22.40;;;6.40;;
58637;SDS011;54976;51.510;7.522;2023-12-20T07:29:17;18.15;;;6.68;;
58637;SDS011;54976;51.510;7.522;2023-12-20T07:32:18;21.95;;;6.25;;
58637;SDS011;54976;51.510;7.522;2023-12-20T07:35:18;24.63;;;8.05;;
58637;SDS011;54976;51.510;7.522;2023-12-20T07:38:19;19.90;;;6.43;;
58637;SDS011;54976;51.510;7.522;2023-12-20T07:41:20;26.27;;;7.90;;
58637;SDS011;54976;51.510;7.522;2023-12-20T07:44:21;21.95;;;6.70;;
58637;SDS011;54976;51.510;7.522;2023-12-20T07:47:22;32.80;;;7.13;;
58637;SDS011;54976;51.510;7.522;2023-12-20T07:50:22;22.63;;;6.35;;
58637;SDS011;54976;51.510;7.522;2023-12-20T07:53:23;18.00;;;5.90;;
58637;SDS011;54976;51.510;7.522;2023-12-20T07:56:23;16.40;;;5.28;;
58637;SDS011;54976;51.510;7.522;2023-12-20T07:59:24;16.98;;;5.97;;
58637;SDS011;54976;51.510;7.522;2023-12-20T08:02:25;24.08;;;6.45;;
58637;SDS011;54976;51.510;7.522;2023-12-20T08:05:25;23.02;;;5.95;;
58637;SDS011;54976;51.510;7.522;2023-12-20T08:08:26;24.15;;;6.38;;
58637;SDS011;54976;51.510;7.522;2023-12-20T08:11:26;26.52;;;6.82;;
58637;SDS011;54976;51.510;7.522;2023-12-20T08:14:28;24.65;;;6.30;;
58637;SDS011;54976;51.510;7.522;2023-12-20T08:17:28;19.10;;;5.63;;
58637;SDS011;54976;51.510;7.522;2023-12-20T08:20:29;26.88;;;7.13;;
58637;SDS011;54976;51.510;7.522;2023-12-20T08:23:29;17.95;;;5.93;;
58637;SDS011;54976;51.510;7.522;2023-12-20T08:26:30;19.45;;;5.72;;
58637;SDS011;54976;51.510;7.522;2023-12-20T08:29:31;22.08;;;6.18;;
58637;SDS011;54976;51.510;7.522;2023-12-20T08:32:32;22.83;;;6.03;;
58637;SDS011;54976;51.510;7.522;2023-12-20T08:35:33;20.05;;;5.50;;
58637;SDS011;54976;51.510;7.522;2023-12-20T08:38:33;22.80;;;5.65;;
58637;SDS011;54976;51.510;7.522;2023-12-20T08:41:34;17.13;;;5.65;;
58637;SDS011;54976;51.510;7.522;2023-12-20T08:44:35;20.40;;;5.95;;
58637;SDS011;54976;51.510;7.522;2023-12-20T08:47:36;15.95;;;4.38;;
58637;SDS011;54976;51.510;7.522;2023-12-20T08:50:36;18.50;;;5.20;;
58637;SDS011;54976;51.510;7.522;2023-12-20T08:53:37;20.50;;;5.60;;
58637;SDS011;54976;51.510;7.522;2023-12-20T08:56:38;26.65;;;5.18;;
58637;SDS011;54976;51.510;7.522;2023-12-20T08:59:39;22.10;;;5.38;;
58637;SDS011;54976;51.510;7.522;2023-12-20T09:02:39;22.02;;;4.28;;
58637;SDS011;54976;51.510;7.522;2023-12-20T09:05:40;17.20;;;4.40;;
58637;SDS011;54976;51.510;7.522;2023-12-20T09:08:40;27.83;;;5.50;;
58637;SDS011;54976;51.510;7.522;2023-12-20T09:11:41;23.63;;;5.35;;
58637;SDS011;54976;51.510;7.522;2023-12-20T09:14:42;20.55;;;5.68;;
58637;SDS011;54976;51.510;7.522;2023-12-20T09:17:42;21.38;;;5.78;;
58637;SDS011;54976;51.510;7.522;2023-12-20T09:20:43;24.90;;;5.43;;
58637;SDS011;54976;51.510;7.522;2023-12-20T09:23:44;19.95;;;4.70;;
58637;SDS011;54976;51.510;7.522;2023-12-20T09:26:45;22.80;;;5.28;;
58637;SDS011;54976;51.510;7.522;2023-12-20T09:29:45;16.98;;;5.97;;
58637;SDS011;54976;51.510;7.522;2023-12-20T09:32:48;16.92;;;4.35;;
58637;SDS011;54976;51.510;7.522;2023-12-20T09:35:49;27.40;;;4.50;;
58637;SDS011;54976;51.510;7.522;2023-12-20T09:38:49;20.63;;;4.05;;
58637;SDS011;54976;51.510;7.522;2023-12-20T09:42:01;15.13;;;4.35;;
58637;SDS011;54976;51.510;7.522;2023-12-20T09:45:03;30.20;;;4.70;;
58637;SDS011;54976;51.510;7.522;2023-12-20T09:48:07;19.33;;;4.10;;
58637;SDS011;54976;51.510;7.522;2023-12-20T09:51:10;15.40;;;4.00;;
58637;SDS011;54976;51.510;7.522;2023-12-20T09:54:12;23.50;;;3.95;;
58637;SDS011;54976;51.510;7.522;2023-12-20T09:57:19;21.40;;;4.60;;
58637;SDS011;54976;51.510;7.522;2023-12-20T10:00:19;19.35;;;3.55;;
58637;SDS011;54976;51.510;7.522;2023-12-20T10:03:24;19.08;;;4.95;;
58637;SDS011;54976;51.510;7.522;2023-12-20T10:06:26;17.33;;;4.25;;
58637;SDS011;54976;51.510;7.522;2023-12-20T10:09:26;18.60;;;3.72;;
58637;SDS011;54976;51.510;7.522;2023-12-20T10:12:29;20.40;;;4.40;;
58637;SDS011;54976;51.510;7.522;2023-12-20T10:15:29;21.10;;;4.93;;
58637;SDS011;54976;51.510;7.522;2023-12-20T10:18:30;25.23;;;7.85;;
58637;SDS011;54976;51.510;7.522;2023-12-20T10:21:32;18.30;;;4.35;;
58637;SDS011;54976;51.510;7.522;2023-12-20T10:24:32;18.95;;;4.07;;
58637;SDS011;54976;51.510;7.522;2023-12-20T10:27:33;20.73;;;4.25;;
58637;SDS011;54976;51.510;7.522;2023-12-20T10:30:34;19.52;;;3.33;;
58637;SDS011;54976;51.510;7.522;2023-12-20T10:33:34;20.38;;;4.15;;
58637;SDS011;54976;51.510;7.522;2023-12-20T10:36:35;16.55;;;3.97;;
58637;SDS011;54976;51.510;7.522;2023-12-20T10:39:36;23.67;;;4.13;;
58637;SDS011;54976;51.510;7.522;2023-12-20T10:42:37;20.15;;;3.78;;
58637;SDS011;54976;51.510;7.522;2023-12-20T10:45:43;17.52;;;4.20;;
58637;SDS011;54976;51.510;7.522;2023-12-20T10:48:44;18.95;;;4.30;;
58637;SDS011;54976;51.510;7.522;2023-12-20T10:51:46;15.20;;;4.10;;
58637;SDS011;54976;51.510;7.522;2023-12-20T10:54:48;20.08;;;4.93;;
58637;SDS011;54976;51.510;7.522;2023-12-20T10:57:49;22.88;;;4.50;;
58637;SDS011;54976;51.510;7.522;2023-12-20T11:00:51;21.75;;;4.38;;
58637;SDS011;54976;51.510;7.522;2023-12-20T11:03:59;16.20;;;4.32;;
58637;SDS011;54976;51.510;7.522;2023-12-20T11:07:05;19.70;;;4.57;;
58637;SDS011;54976;51.510;7.522;2023-12-20T11:10:21;17.38;;;4.32;;
58637;SDS011;54976;51.510;7.522;2023-12-20T11:13:28;19.15;;;4.32;;
58637;SDS011;54976;51.510;7.522;2023-12-20T11:16:37;16.05;;;4.18;;
58637;SDS011;54976;51.510;7.522;2023-12-20T11:19:43;18.95;;;4.60;;
58637;SDS011;54976;51.510;7.522;2023-12-20T11:22:53;14.60;;;3.90;;
58637;SDS011;54976;51.510;7.522;2023-12-20T11:25:56;21.65;;;5.15;;
58637;SDS011;54976;51.510;7.522;2023-12-20T11:32:35;13.60;;;4.38;;
58637;SDS011;54976;51.510;7.522;2023-12-20T11:35:37;23.33;;;4.82;;
58637;SDS011;54976;51.510;7.522;2023-12-20T11:38:49;23.38;;;4.75;;
58637;SDS011;54976;51.510;7.522;2023-12-20T11:41:56;21.58;;;4.93;;
58637;SDS011;54976;51.510;7.522;2023-12-20T11:44:57;11.50;;;3.75;;
58637;SDS011;54976;51.510;7.522;2023-12-20T11:47:58;16.58;;;4.68;;
58637;SDS011;54976;51.510;7.522;2023-12-20T11:50:58;17.65;;;5.50;;
58637;SDS011;54976;51.510;7.522;2023-12-20T11:53:59;23.55;;;5.28;;
58637;SDS011;54976;51.510;7.522;2023-12-20T11:57:00;20.38;;;4.38;;
58637;SDS011;54976;51.510;7.522;2023-12-20T12:00:01;13.80;;;4.45;;
58637;SDS011;54976;51.510;7.522;2023-12-20T12:03:02;18.67;;;4.63;;
58637;SDS011;54976;51.510;7.522;2023-12-20T12:06:04;18.75;;;5.18;;
58637;SDS011;54976;51.510;7.522;2023-12-20T12:09:04;19.13;;;4.95;;
58637;SDS011;54976;51.510;7.522;2023-12-20T12:12:05;13.85;;;4.85;;
58637;SDS011;54976;51.510;7.522;2023-12-20T12:15:06;14.57;;;4.90;;
58637;SDS011;54976;51.510;7.522;2023-12-20T12:18:08;17.23;;;5.10;;
58637;SDS011;54976;51.510;7.522;2023-12-20T12:21:10;20.17;;;5.20;;
58637;SDS011;54976;51.510;7.522;2023-12-20T12:24:21;24.85;;;5.28;;
58637;SDS011;54976;51.510;7.522;2023-12-20T12:27:22;19.27;;;5.15;;
58637;SDS011;54976;51.510;7.522;2023-12-20T12:30:23;21.25;;;6.05;;
58637;SDS011;54976;51.510;7.522;2023-12-20T12:33:25;16.50;;;5.80;;
58637;SDS011;54976;51.510;7.522;2023-12-20T12:36:26;24.23;;;6.28;;
58637;SDS011;54976;51.510;7.522;2023-12-20T12:39:28;21.55;;;5.35;;
58637;SDS011;54976;51.510;7.522;2023-12-20T12:42:30;13.40;;;6.00;;
58637;SDS011;54976;51.510;7.522;2023-12-20T12:45:30;25.73;;;6.45;;
58637;SDS011;54976;51.510;7.522;2023-12-20T12:48:32;23.13;;;7.28;;
58637;SDS011;54976;51.510;7.522;2023-12-20T12:51:33;17.42;;;6.45;;
58637;SDS011;54976;51.510;7.522;2023-12-20T12:54:34;20.73;;;6.72;;
58637;SDS011;54976;51.510;7.522;2023-12-20T12:57:40;20.77;;;6.63;;
58637;SDS011;54976;51.510;7.522;2023-12-20T13:00:40;16.95;;;6.75;;
58637;SDS011;54976;51.510;7.522;2023-12-20T13:03:42;15.35;;;5.63;;
58637;SDS011;54976;51.510;7.522;2023-12-20T13:06:43;17.23;;;5.75;;
58637;SDS011;54976;51.510;7.522;2023-12-20T13:09:43;16.60;;;5.25;;
58637;SDS011;54976;51.510;7.522;2023-12-20T13:12:44;18.33;;;6.15;;
58637;SDS011;54976;51.510;7.522;2023-12-20T13:15:45;18.85;;;6.60;;
58637;SDS011;54976;51.510;7.522;2023-12-20T13:18:50;17.63;;;4.90;;
58637;SDS011;54976;51.510;7.522;2023-12-20T13:21:51;15.27;;;4.93;;
58637;SDS011;54976;51.510;7.522;2023-12-20T13:24:52;18.77;;;5.95;;
58637;SDS011;54976;51.510;7.522;2023-12-20T13:27:53;20.10;;;5.55;;
58637;SDS011;54976;51.510;7.522;2023-12-20T13:30:53;26.45;;;6.25;;
58637;SDS011;54976;51.510;7.522;2023-12-20T13:33:54;16.23;;;5.72;;
58637;SDS011;54976;51.510;7.522;2023-12-20T13:36:55;19.65;;;6.68;;
58637;SDS011;54976;51.510;7.522;2023-12-20T13:39:56;22.40;;;6.18;;
58637;SDS011;54976;51.510;7.522;2023-12-20T13:42:57;33.35;;;6.70;;
58637;SDS011;54976;51.510;7.522;2023-12-20T13:45:58;19.58;;;6.70;;
58637;SDS011;54976;51.510;7.522;2023-12-20T13:48:59;22.98;;;6.32;;
58637;SDS011;54976;51.510;7.522;2023-12-20T13:51:59;14.32;;;5.63;;
58637;SDS011;54976;51.510;7.522;2023-12-20T13:55:00;16.45;;;6.20;;
58637;SDS011;54976;51.510;7.522;2023-12-20T13:58:01;19.35;;;5.90;;
58637;SDS011;54976;51.510;7.522;2023-12-20T14:01:01;17.27;;;6.10;;
58637;SDS011;54976;51.510;7.522;2023-12-20T14:04:02;12.95;;;6.05;;
58637;SDS011;54976;51.510;7.522;2023-12-20T14:07:03;18.63;;;7.00;;
58637;SDS011;54976;51.510;7.522;2023-12-20T14:10:07;22.75;;;6.47;;
58637;SDS011;54976;51.510;7.522;2023-12-20T14:13:08;17.00;;;5.47;;
58637;SDS011;54976;51.510;7.522;2023-12-20T14:16:08;13.38;;;5.15;;
58637;SDS011;54976;51.510;7.522;2023-12-20T14:19:11;13.52;;;5.35;;
58637;SDS011;54976;51.510;7.522;2023-12-20T14:22:12;15.52;;;5.25;;
58637;SDS011;54976;51.510;7.522;2023-12-20T14:25:16;15.15;;;5.78;;
58637;SDS011;54976;51.510;7.522;2023-12-20T14:28:17;17.23;;;5.40;;
58637;SDS011;54976;51.510;7.522;2023-12-20T14:31:18;16.80;;;6.20;;
58637;SDS011;54976;51.510;7.522;2023-12-20T14:34:18;21.48;;;5.82;;
58637;SDS011;54976;51.510;7.522;2023-12-20T14:37:19;9.75;;;5.15;;
58637;SDS011;54976;51.510;7.522;2023-12-20T14:40:19;17.30;;;5.47;;
58637;SDS011;54976;51.510;7.522;2023-12-20T14:43:20;17.75;;;6.28;;
58637;SDS011;54976;51.510;7.522;2023-12-20T14:46:22;17.30;;;7.00;;
58637;SDS011;54976;51.510;7.522;2023-12-20T14:49:22;16.02;;;6.70;;
58637;SDS011;54976;51.510;7.522;2023-12-20T14:52:23;16.55;;;5.32;;
58637;SDS011;54976;51.510;7.522;2023-12-20T14:55:23;14.95;;;5.90;;
58637;SDS011;54976;51.510;7.522;2023-12-20T14:58:26;11.63;;;5.38;;
58637;SDS011;54976;51.510;7.522;2023-12-20T15:01:29;11.38;;;4.63;;
58637;SDS011;54976;51.510;7.522;2023-12-20T15:04:31;14.18;;;4.68;;
58637;SDS011;54976;51.510;7.522;2023-12-20T15:07:31;11.93;;;5.25;;
58637;SDS011;54976;51.510;7.522;2023-12-20T15:10:32;13.93;;;5.65;;
58637;SDS011;54976;51.510;7.522;2023-12-20T15:13:33;16.15;;;6.18;;
58637;SDS011;54976;51.510;7.522;2023-12-20T15:16:35;15.00;;;6.78;;
58637;SDS011;54976;51.510;7.522;2023-12-20T15:19:35;20.75;;;7.28;;
58637;SDS011;54976;51.510;7.522;2023-12-20T15:22:36;19.38;;;7.53;;
58637;SDS011;54976;51.510;7.522;2023-12-20T15:25:37;20.15;;;7.85;;
58637;SDS011;54976;51.510;7.522;2023-12-20T15:28:38;22.75;;;9.02;;
58637;SDS011;54976;51.510;7.522;2023-12-20T15:31:48;20.17;;;8.57;;
58637;SDS011;54976;51.510;7.522;2023-12-20T15:34:51;18.63;;;8.35;;
58637;SDS011;54976;51.510;7.522;2023-12-20T15:37:54;16.02;;;8.00;;
58637;SDS011;54976;51.510;7.522;2023-12-20T15:40:55;15.68;;;7.90;;
58637;SDS011;54976;51.510;7.522;2023-12-20T15:43:56;20.05;;;8.70;;
58637;SDS011;54976;51.510;7.522;2023-12-20T15:46:56;22.63;;;8.85;;
58637;SDS011;54976;51.510;7.522;2023-12-20T15:49:57;25.55;;;9.25;;
58637;SDS011;54976;51.510;7.522;2023-12-20T15:52:58;20.98;;;9.98;;
58637;SDS011;54976;51.510;7.522;2023-12-20T15:55:58;23.80;;;8.68;;
58637;SDS011;54976;51.510;7.522;2023-12-20T15:58:59;15.40;;;6.60;;
58637;SDS011;54976;51.510;7.522;2023-12-20T16:02:00;18.42;;;8.50;;
58637;SDS011;54976;51.510;7.522;2023-12-20T16:05:00;23.85;;;8.20;;
58637;SDS011;54976;51.510;7.522;2023-12-20T16:08:01;16.80;;;9.15;;
58637;SDS011;54976;51.510;7.522;2023-12-20T16:11:03;19.27;;;8.75;;
58637;SDS011;54976;51.510;7.522;2023-12-20T16:14:04;19.02;;;8.98;;
58637;SDS011;54976;51.510;7.522;2023-12-20T16:17:05;24.08;;;9.13;;
58637;SDS011;54976;51.510;7.522;2023-12-20T16:20:06;23.45;;;9.05;;
58637;SDS011;54976;51.510;7.522;2023-12-20T16:23:08;20.73;;;8.95;;
58637;SDS011;54976;51.510;7.522;2023-12-20T16:26:22;23.73;;;7.93;;
58637;SDS011;54976;51.510;7.522;2023-12-20T16:29:23;17.75;;;7.65;;
58637;SDS011;54976;51.510;7.522;2023-12-20T16:32:23;17.00;;;8.63;;
58637;SDS011;54976;51.510;7.522;2023-12-20T16:35:24;19.90;;;8.68;;
58637;SDS011;54976;51.510;7.522;2023-12-20T16:38:24;27.88;;;9.57;;
58637;SDS011;54976;51.510;7.522;2023-12-20T16:41:25;19.10;;;7.88;;
58637;SDS011;54976;51.510;7.522;2023-12-20T16:44:26;23.30;;;8.52;;
58637;SDS011;54976;51.510;7.522;2023-12-20T16:47:26;19.35;;;9.02;;
58637;SDS011;54976;51.510;7.522;2023-12-20T16:50:27;20.08;;;8.25;;
58637;SDS011;54976;51.510;7.522;2023-12-20T16:53:28;21.15;;;8.05;;
58637;SDS011;54976;51.510;7.522;2023-12-20T16:56:28;17.60;;;8.38;;
58637;SDS011;54976;51.510;7.522;2023-12-20T16:59:29;21.17;;;8.10;;
58637;SDS011;54976;51.510;7.522;2023-12-20T17:02:29;12.38;;;7.78;;
58637;SDS011;54976;51.510;7.522;2023-12-20T17:05:30;22.15;;;9.55;;
58637;SDS011;54976;51.510;7.522;2023-12-20T17:08:30;22.33;;;8.65;;
58637;SDS011;54976;51.510;7.522;2023-12-20T17:11:32;21.58;;;8.10;;
58637;SDS011;54976;51.510;7.522;2023-12-20T17:14:33;17.10;;;8.70;;
58637;SDS011;54976;51.510;7.522;2023-12-20T17:17:34;21.13;;;10.10;;
58637;SDS011;54976;51.510;7.522;2023-12-20T17:20:35;25.77;;;9.43;;
58637;SDS011;54976;51.510;7.522;2023-12-20T17:23:36;24.77;;;10.40;;
58637;SDS011;54976;51.510;7.522;2023-12-20T17:26:36;24.95;;;9.00;;
58637;SDS011;54976;51.510;7.522;2023-12-20T17:29:37;23.02;;;10.13;;
58637;SDS011;54976;51.510;7.522;2023-12-20T17:32:38;18.80;;;9.23;;
58637;SDS011;54976;51.510;7.522;2023-12-20T17:35:39;24.23;;;7.82;;
58637;SDS011;54976;51.510;7.522;2023-12-20T17:38:40;27.55;;;10.15;;
58637;SDS011;54976;51.510;7.522;2023-12-20T17:41:41;25.35;;;8.55;;
58637;SDS011;54976;51.510;7.522;2023-12-20T17:44:43;28.83;;;9.90;;
58637;SDS011;54976;51.510;7.522;2023-12-20T17:47:43;21.13;;;8.73;;
58637;SDS011;54976;51.510;7.522;2023-12-20T17:50:44;28.10;;;9.63;;
58637;SDS011;54976;51.510;7.522;2023-12-20T17:53:44;28.58;;;9.70;;
58637;SDS011;54976;51.510;7.522;2023-12-20T17:56:45;24.33;;;8.10;;